createdAt,value
2023-03-29T00:00:33.040Z,3.97
2023-03-29T00:03:02.778Z,3.97
2023-03-29T00:05:34.016Z,3.97
2023-03-29T00:08:04.366Z,3.98
2023-03-29T00:10:32.778Z,3.93
2023-03-29T00:13:00.787Z,3.90
2023-03-29T00:15:28.446Z,3.87
2023-03-29T00:17:56.285Z,3.83
2023-03-29T00:20:26.370Z,3.87
2023-03-29T00:22:54.059Z,3.86
2023-03-29T00:25:21.824Z,3.84
2023-03-29T00:27:49.744Z,3.84
2023-03-29T00:30:20.192Z,3.79
2023-03-29T00:32:47.972Z,3.76
2023-03-29T00:35:16.653Z,3.77
2023-03-29T00:37:47.308Z,3.72
2023-03-29T00:40:15.695Z,3.70
2023-03-29T00:42:46.769Z,3.73
2023-03-29T00:45:19.207Z,3.73
2023-03-29T00:47:51.470Z,3.69
2023-03-29T00:50:25.879Z,3.65
2023-03-29T00:53:00.184Z,3.66
2023-03-29T00:55:31.946Z,3.68
2023-03-29T00:58:01.103Z,3.67
2023-03-29T01:00:33.323Z,3.66
2023-03-29T01:03:09.112Z,3.67
2023-03-29T01:05:49.083Z,3.63
2023-03-29T01:08:25.827Z,3.63
2023-03-29T01:11:03.262Z,3.64
2023-03-29T01:13:39.478Z,3.65
2023-03-29T01:16:09.432Z,3.67
2023-03-29T01:18:37.514Z,3.63
2023-03-29T01:21:16.672Z,3.65
2023-03-29T01:23:54.284Z,3.65
2023-03-29T01:26:25.137Z,3.64
2023-03-29T01:29:02.011Z,3.61
2023-03-29T01:31:38.304Z,3.60
2023-03-29T01:34:15.365Z,3.61
2023-03-29T01:37:00.439Z,3.65
2023-03-29T01:39:28.221Z,3.67
2023-03-29T01:42:08.169Z,3.69
2023-03-29T01:44:47.930Z,3.72
2023-03-29T01:47:29.849Z,3.80
2023-03-29T01:50:05.607Z,3.81
2023-03-29T01:52:40.461Z,3.84
2023-03-29T01:55:24.389Z,3.86
2023-03-29T01:57:54.299Z,3.85
2023-03-29T02:00:25.031Z,3.86
2023-03-29T02:02:55.336Z,3.86
2023-03-29T02:05:23.578Z,3.87
2023-03-29T02:07:53.005Z,3.87
2023-03-29T02:10:22.092Z,3.90
2023-03-29T02:12:50.720Z,3.91
2023-03-29T02:15:20.239Z,3.93
2023-03-29T02:17:49.633Z,3.93
2023-03-29T02:20:24.998Z,3.94
2023-03-29T02:23:12.608Z,3.94
2023-03-29T02:25:41.162Z,3.96
2023-03-29T02:28:09.008Z,3.96
2023-03-29T02:30:44.654Z,4.01
2023-03-29T02:33:19.646Z,4.01
2023-03-29T02:36:04.620Z,4.02
2023-03-29T02:38:32.858Z,4.07
2023-03-29T02:41:01.253Z,4.07
2023-03-29T02:43:29.349Z,4.04
2023-03-29T02:45:57.290Z,4.05
2023-03-29T02:48:26.493Z,4.05
2023-03-29T02:50:57.025Z,4.03
2023-03-29T02:53:29.422Z,4.05
2023-03-29T02:55:57.966Z,4.08
2023-03-29T02:58:26.783Z,4.09
2023-03-29T03:00:55.944Z,4.10
2023-03-29T03:03:23.651Z,4.10
2023-03-29T03:06:01.772Z,4.13
2023-03-29T03:08:32.292Z,4.13
2023-03-29T03:11:00.252Z,4.19
2023-03-29T03:13:28.220Z,4.21
2023-03-29T03:16:00.248Z,4.26
2023-03-29T03:18:27.983Z,4.28
2023-03-29T03:20:57.405Z,4.30
2023-03-29T03:23:25.467Z,4.32
2023-03-29T03:25:53.810Z,4.33
2023-03-29T03:28:27.471Z,4.34
2023-03-29T03:30:56.222Z,4.33
2023-03-29T03:33:27.247Z,4.34
2023-03-29T03:36:06.567Z,4.35
2023-03-29T03:38:37.649Z,4.39
2023-03-29T03:41:07.293Z,4.39
2023-03-29T03:43:35.480Z,4.41
2023-03-29T03:46:03.547Z,4.41
2023-03-29T03:48:31.804Z,4.42
2023-03-29T03:51:06.612Z,4.44
2023-03-29T03:53:36.108Z,4.48
2023-03-29T03:56:14.001Z,4.52
2023-03-29T03:59:05.168Z,4.53
2023-03-29T04:01:55.045Z,4.55
2023-03-29T04:04:25.066Z,4.55
2023-03-29T04:07:08.245Z,4.55
2023-03-29T04:10:00.792Z,4.59
2023-03-29T04:12:34.055Z,4.63
2023-03-29T04:15:05.293Z,4.67
2023-03-29T04:17:33.844Z,4.71
2023-03-29T04:20:22.057Z,4.77
2023-03-29T04:22:50.154Z,4.78
2023-03-29T04:25:18.967Z,4.84
2023-03-29T04:27:50.613Z,4.89
2023-03-29T04:30:47.076Z,4.90
2023-03-29T04:33:31.661Z,4.95
2023-03-29T04:36:01.705Z,5.03
2023-03-29T04:38:32.248Z,5.04
2023-03-29T04:41:01.409Z,5.00
2023-03-29T04:44:04.755Z,5.00
2023-03-29T04:46:33.447Z,5.02
2023-03-29T04:49:19.327Z,5.06
2023-03-29T04:51:51.077Z,5.09
2023-03-29T04:54:22.222Z,5.11
2023-03-29T04:57:22.025Z,5.19
2023-03-29T05:00:00.040Z,5.27
2023-03-29T05:02:47.848Z,5.35
2023-03-29T05:05:16.290Z,5.39
2023-03-29T05:07:48.107Z,5.38
2023-03-29T05:10:20.114Z,5.43
2023-03-29T05:12:50.689Z,5.47
2023-03-29T05:15:18.667Z,5.52
2023-03-29T05:17:49.162Z,5.52
2023-03-29T05:20:17.836Z,5.54
2023-03-29T05:22:48.788Z,5.56
2023-03-29T05:25:36.406Z,5.64
2023-03-29T05:28:04.753Z,5.68
2023-03-29T05:30:32.566Z,5.71
2023-03-29T05:33:07.410Z,5.80
2023-03-29T05:35:36.193Z,5.91
2023-03-29T05:38:09.049Z,6.08
2023-03-29T05:40:37.299Z,6.23
2023-03-29T05:43:14.380Z,6.34
2023-03-29T05:45:42.287Z,6.33
2023-03-29T05:48:10.350Z,6.38
2023-03-29T05:50:45.780Z,6.33
2023-03-29T05:53:14.220Z,6.30
2023-03-29T05:55:42.605Z,6.32
2023-03-29T05:58:13.843Z,6.28
2023-03-29T06:00:43.937Z,6.26
2023-03-29T06:03:29.896Z,6.31
2023-03-29T06:06:03.938Z,6.32
2023-03-29T06:08:34.200Z,6.40
2023-03-29T06:11:18.506Z,6.37
2023-03-29T06:14:23.472Z,6.41
2023-03-29T06:16:57.326Z,6.47
2023-03-29T06:19:25.399Z,6.49
2023-03-29T06:21:54.787Z,6.54
2023-03-29T06:24:27.158Z,6.69
2023-03-29T06:27:02.040Z,6.76
2023-03-29T06:29:31.212Z,6.76
2023-03-29T06:31:59.113Z,6.81
2023-03-29T06:34:51.023Z,6.86
2023-03-29T06:37:30.298Z,6.82
2023-03-29T06:40:10.224Z,6.86
2023-03-29T06:42:44.788Z,6.83
2023-03-29T06:45:43.962Z,6.75
2023-03-29T06:48:22.900Z,6.68
2023-03-29T06:50:50.961Z,6.63
2023-03-29T06:53:19.539Z,6.61
2023-03-29T06:55:55.201Z,6.59
2023-03-29T06:58:41.480Z,6.56
2023-03-29T07:01:35.580Z,6.48
2023-03-29T07:04:17.712Z,6.42
2023-03-29T07:07:20.587Z,6.40
2023-03-29T07:09:55.755Z,6.35
2023-03-29T07:12:44.781Z,6.34
2023-03-29T07:15:13.779Z,6.30
2023-03-29T07:18:12.792Z,6.41
2023-03-29T07:20:41.838Z,6.43
2023-03-29T07:23:11.474Z,6.46
2023-03-29T07:25:41.096Z,6.41
2023-03-29T07:28:09.369Z,6.45
2023-03-29T07:30:39.505Z,6.53
2023-03-29T07:33:19.534Z,6.64
2023-03-29T07:35:52.059Z,6.75
2023-03-29T07:38:20.647Z,6.79
2023-03-29T07:41:04.347Z,6.86
2023-03-29T07:43:52.109Z,6.92
2023-03-29T07:46:25.221Z,6.97
2023-03-29T07:48:53.217Z,7.02
2023-03-29T07:51:21.624Z,7.10
2023-03-29T07:53:52.532Z,7.17
2023-03-29T07:56:46.261Z,7.33
2023-03-29T07:59:28.037Z,7.47
2023-03-29T08:02:05.538Z,7.47
2023-03-29T08:04:42.384Z,7.48
2023-03-29T08:07:21.307Z,7.44
2023-03-29T08:10:00.920Z,7.44
2023-03-29T08:12:42.568Z,7.48
2023-03-29T08:15:11.410Z,7.62
2023-03-29T08:17:40.042Z,7.70
2023-03-29T08:20:10.835Z,7.78
2023-03-29T08:22:40.774Z,7.78
2023-03-29T08:25:09.238Z,7.78
2023-03-29T08:27:44.873Z,7.82
2023-03-29T08:30:15.608Z,7.81
2023-03-29T08:32:43.507Z,7.79
2023-03-29T08:35:11.427Z,7.80
2023-03-29T08:38:05.506Z,7.73
2023-03-29T08:40:34.802Z,7.64
2023-03-29T08:43:24.034Z,7.60
2023-03-29T08:46:21.344Z,7.51
2023-03-29T08:48:54.618Z,7.52
2023-03-29T08:51:31.012Z,7.56
2023-03-29T08:54:05.849Z,7.55
2023-03-29T08:56:47.572Z,7.42
2023-03-29T08:59:35.535Z,7.41
2023-03-29T09:02:15.589Z,7.52
2023-03-29T09:04:43.857Z,7.58
2023-03-29T09:07:26.662Z,7.65
2023-03-29T09:09:56.009Z,7.68
2023-03-29T09:13:11.904Z,7.66
2023-03-29T09:15:55.131Z,7.64
2023-03-29T09:18:49.114Z,7.56
2023-03-29T09:21:25.332Z,7.45
2023-03-29T09:24:03.964Z,7.39
2023-03-29T09:26:59.889Z,7.18
2023-03-29T09:29:32.089Z,7.08
2023-03-29T09:32:03.688Z,6.96
2023-03-29T09:34:44.677Z,6.99
2023-03-29T09:37:46.901Z,7.03
2023-03-29T09:40:40.478Z,7.11
2023-03-29T09:43:38.633Z,7.13
2023-03-29T09:46:17.902Z,7.15
2023-03-29T09:48:46.637Z,7.14
2023-03-29T09:51:14.762Z,7.13
2023-03-29T09:53:42.698Z,7.11
2023-03-29T09:56:33.482Z,7.17
2023-03-29T09:59:13.575Z,7.23
2023-03-29T10:01:45.685Z,7.22
2023-03-29T10:04:15.229Z,7.21
2023-03-29T10:06:52.743Z,7.09
2023-03-29T10:09:22.276Z,7.08
2023-03-29T10:11:56.791Z,7.09
2023-03-29T10:14:37.194Z,7.04
2023-03-29T10:17:15.664Z,7.11
2023-03-29T10:19:51.779Z,7.15
2023-03-29T10:22:25.619Z,7.16
2023-03-29T10:24:55.089Z,7.10
2023-03-29T10:27:27.819Z,7.16
2023-03-29T10:29:56.928Z,7.11
2023-03-29T10:32:34.375Z,7.12
2023-03-29T10:35:26.713Z,7.13
2023-03-29T10:37:57.693Z,7.11
2023-03-29T10:40:41.875Z,7.06
2023-03-29T10:43:34.325Z,7.09
2023-03-29T10:46:29.506Z,7.06
2023-03-29T10:48:58.011Z,7.07
2023-03-29T10:51:30.155Z,6.96
2023-03-29T10:53:59.327Z,6.98
2023-03-29T10:56:39.321Z,6.97
2023-03-29T10:59:07.472Z,6.96
2023-03-29T11:01:39.668Z,6.92
2023-03-29T11:04:26.480Z,6.88
2023-03-29T11:07:30.791Z,6.81
2023-03-29T11:10:24.826Z,6.77
2023-03-29T11:13:08.577Z,6.71
2023-03-29T11:15:36.615Z,6.76
2023-03-29T11:18:30.621Z,6.77
2023-03-29T11:21:01.656Z,6.75
2023-03-29T11:23:32.520Z,6.68
2023-03-29T11:26:27.402Z,6.62
2023-03-29T11:29:18.134Z,6.58
2023-03-29T11:32:14.519Z,6.60
2023-03-29T11:34:51.282Z,6.58
2023-03-29T11:37:50.029Z,6.51
2023-03-29T11:40:45.647Z,6.60
2023-03-29T11:43:26.107Z,6.58
2023-03-29T11:45:57.975Z,6.62
2023-03-29T11:48:30.045Z,6.55
2023-03-29T11:51:11.311Z,6.74
2023-03-29T11:53:51.819Z,6.74
2023-03-29T11:57:18.152Z,6.76
2023-03-29T12:00:06.113Z,6.73
2023-03-29T12:02:46.830Z,6.76
2023-03-29T12:05:21.583Z,6.79
2023-03-29T12:08:07.486Z,6.77
2023-03-29T12:10:42.560Z,6.82
2023-03-29T12:13:48.988Z,6.89
2023-03-29T12:16:23.312Z,6.90
2023-03-29T12:18:55.168Z,6.83
2023-03-29T12:21:26.409Z,6.79
2023-03-29T12:24:05.152Z,6.78
2023-03-29T12:26:49.694Z,6.78
2023-03-29T12:30:13.729Z,6.66
2023-03-29T12:32:51.424Z,6.67
2023-03-29T12:35:59.424Z,6.64
2023-03-29T12:38:48.237Z,6.56
2023-03-29T12:41:37.302Z,6.54
2023-03-29T12:44:24.883Z,6.33
2023-03-29T12:47:21.896Z,6.55
2023-03-29T12:49:56.929Z,6.51
2023-03-29T12:52:28.462Z,6.31
2023-03-29T12:55:01.576Z,6.35
2023-03-29T12:57:53.254Z,6.33
2023-03-29T13:00:45.385Z,6.39
2023-03-29T13:03:42.904Z,6.43
2023-03-29T13:06:12.736Z,6.44
2023-03-29T13:08:43.529Z,6.43
2023-03-29T13:11:28.548Z,6.48
2023-03-29T13:14:04.900Z,6.50
2023-03-29T13:16:38.844Z,6.45
2023-03-29T13:19:39.203Z,6.48
2023-03-29T13:22:37.242Z,6.38
2023-03-29T13:25:40.984Z,6.22
2023-03-29T13:28:45.509Z,6.20
2023-03-29T13:31:40.573Z,6.17
2023-03-29T13:34:32.547Z,6.18
2023-03-29T13:37:19.405Z,6.27
2023-03-29T13:39:53.091Z,6.23
2023-03-29T13:42:41.929Z,6.18
2023-03-29T13:45:23.166Z,6.23
2023-03-29T13:48:05.456Z,6.13
2023-03-29T13:50:41.040Z,6.24
2023-03-29T13:53:44.926Z,6.12
2023-03-29T13:56:17.256Z,6.28
2023-03-29T13:58:55.550Z,6.19
2023-03-29T14:01:36.603Z,6.22
2023-03-29T14:04:10.805Z,6.18
2023-03-29T14:06:42.553Z,6.20
2023-03-29T14:09:14.529Z,6.16
2023-03-29T14:11:45.851Z,6.19
2023-03-29T14:14:14.976Z,6.17
2023-03-29T14:16:44.636Z,6.26
2023-03-29T14:19:19.775Z,6.19
2023-03-29T14:21:50.350Z,6.23
2023-03-29T14:24:22.305Z,6.28
2023-03-29T14:26:50.439Z,6.31
2023-03-29T14:29:18.369Z,6.33
2023-03-29T14:31:46.967Z,6.25
2023-03-29T14:34:16.810Z,6.23
2023-03-29T14:36:46.412Z,6.28
2023-03-29T14:39:23.741Z,6.18
2023-03-29T14:41:57.079Z,6.32
2023-03-29T14:44:31.091Z,6.32
2023-03-29T14:47:01.946Z,6.28
2023-03-29T14:49:30.129Z,6.24
2023-03-29T14:51:58.238Z,6.29
2023-03-29T14:54:32.013Z,6.31
2023-03-29T14:57:00.237Z,6.29
2023-03-29T14:59:42.869Z,6.29
2023-03-29T15:02:31.620Z,6.24
2023-03-29T15:05:06.945Z,6.27
2023-03-29T15:07:36.631Z,6.18
2023-03-29T15:10:06.584Z,6.33
2023-03-29T15:12:34.755Z,6.29
2023-03-29T15:15:03.941Z,6.33
2023-03-29T15:17:49.475Z,6.32
2023-03-29T15:20:41.712Z,6.34
2023-03-29T15:23:21.672Z,6.36
2023-03-29T15:26:19.537Z,6.36
2023-03-29T15:29:13.176Z,6.38
2023-03-29T15:31:41.913Z,6.37
2023-03-29T15:34:25.175Z,6.27
2023-03-29T15:36:54.164Z,6.31
2023-03-29T15:39:22.146Z,6.24
2023-03-29T15:41:53.883Z,6.38
2023-03-29T15:44:26.791Z,6.31
2023-03-29T15:46:55.679Z,6.36
2023-03-29T15:49:23.862Z,6.33
2023-03-29T15:51:54.138Z,6.28
2023-03-29T15:54:22.446Z,6.31
2023-03-29T15:56:55.913Z,6.30
2023-03-29T15:59:23.785Z,6.27
2023-03-29T16:01:51.878Z,6.29
2023-03-29T16:04:21.261Z,6.31
2023-03-29T16:06:50.708Z,6.34
2023-03-29T16:09:20.304Z,6.32
2023-03-29T16:11:49.546Z,6.39
2023-03-29T16:14:21.260Z,6.36
2023-03-29T16:16:52.568Z,6.32
2023-03-29T16:19:20.576Z,6.32
2023-03-29T16:21:48.705Z,6.30
2023-03-29T16:24:19.798Z,6.31
2023-03-29T16:26:48.256Z,6.33
2023-03-29T16:29:18.572Z,6.37
2023-03-29T16:31:47.702Z,6.36
2023-03-29T16:34:19.349Z,6.36
2023-03-29T16:36:47.924Z,6.33
2023-03-29T16:39:16.131Z,6.36
2023-03-29T16:41:45.279Z,6.36
2023-03-29T16:44:15.947Z,6.38
2023-03-29T16:46:44.120Z,6.39
2023-03-29T16:49:18.261Z,6.38
2023-03-29T16:51:47.261Z,6.33
2023-03-29T16:54:15.673Z,6.37
2023-03-29T16:56:43.845Z,6.26
2023-03-29T16:59:12.366Z,6.39
2023-03-29T17:01:40.926Z,6.37
2023-03-29T17:04:09.188Z,6.35
2023-03-29T17:06:37.091Z,6.40
2023-03-29T17:09:05.277Z,6.39
2023-03-29T17:11:33.651Z,6.40
2023-03-29T17:14:04.963Z,6.40
2023-03-29T17:16:32.899Z,6.42
2023-03-29T17:19:01.074Z,6.40
2023-03-29T17:21:29.670Z,6.43
2023-03-29T17:23:57.504Z,6.38
2023-03-29T17:26:26.161Z,6.39
2023-03-29T17:28:54.011Z,6.45
2023-03-29T17:31:21.845Z,6.43
2023-03-29T17:33:52.203Z,6.40
2023-03-29T17:36:24.318Z,6.41
2023-03-29T17:38:54.401Z,6.44
2023-03-29T17:41:23.060Z,6.43
2023-03-29T17:43:51.162Z,6.46
2023-03-29T17:46:22.964Z,6.44
2023-03-29T17:48:51.293Z,6.45
2023-03-29T17:51:19.929Z,6.42
2023-03-29T17:53:47.704Z,6.44
2023-03-29T17:56:17.625Z,6.43
2023-03-29T17:58:45.533Z,6.41
2023-03-29T18:01:14.532Z,6.41
2023-03-29T18:03:42.812Z,6.40
2023-03-29T18:06:11.605Z,6.38
2023-03-29T18:08:41.844Z,6.41
2023-03-29T18:11:16.238Z,6.41
2023-03-29T18:13:45.020Z,6.38
2023-03-29T18:16:12.986Z,6.39
2023-03-29T18:18:41.599Z,6.38
2023-03-29T18:21:12.655Z,6.36
2023-03-29T18:23:45.300Z,6.38
2023-03-29T18:26:14.795Z,6.39
2023-03-29T18:28:46.750Z,6.42
2023-03-29T18:31:15.512Z,6.42
2023-03-29T18:33:43.495Z,6.38
2023-03-29T18:36:13.170Z,6.39
2023-03-29T18:38:43.291Z,6.37
2023-03-29T18:41:13.060Z,6.33
2023-03-29T18:43:41.886Z,6.39
2023-03-29T18:46:09.679Z,6.43
2023-03-29T18:48:41.109Z,6.46
2023-03-29T18:51:11.616Z,6.45
2023-03-29T18:53:41.702Z,6.42
2023-03-29T18:56:09.777Z,6.40
2023-03-29T18:58:39.995Z,6.37
2023-03-29T19:01:08.069Z,6.41
2023-03-29T19:03:36.549Z,6.40
2023-03-29T19:06:04.923Z,6.38
2023-03-29T19:08:37.357Z,6.33
2023-03-29T19:11:07.508Z,6.32
2023-03-29T19:13:37.519Z,6.27
2023-03-29T19:16:06.122Z,6.29
2023-03-29T19:18:34.238Z,6.29
2023-03-29T19:21:37.760Z,6.27
2023-03-29T19:24:07.863Z,6.30
2023-03-29T19:26:35.759Z,6.31
2023-03-29T19:29:03.609Z,6.30
2023-03-29T19:31:33.532Z,6.34
2023-03-29T19:34:01.523Z,6.33
2023-03-29T19:36:29.296Z,6.33
2023-03-29T19:38:57.159Z,6.29
2023-03-29T19:41:24.982Z,6.28
2023-03-29T19:43:52.722Z,6.30
2023-03-29T19:46:20.615Z,6.25
2023-03-29T19:48:48.534Z,6.26
2023-03-29T19:51:16.805Z,6.25
2023-03-29T19:53:44.608Z,6.25
2023-03-29T19:56:14.613Z,6.25
2023-03-29T19:59:11.329Z,6.23
2023-03-29T20:01:42.721Z,6.18
2023-03-29T20:04:11.923Z,6.16
2023-03-29T20:06:39.739Z,6.16
2023-03-29T20:09:07.734Z,6.14
2023-03-29T20:11:35.713Z,6.14
2023-03-29T20:14:03.953Z,6.13
2023-03-29T20:16:34.492Z,6.13
2023-03-29T20:19:02.878Z,6.13
2023-03-29T20:21:33.682Z,6.14
2023-03-29T20:24:01.451Z,6.14
2023-03-29T20:26:29.182Z,6.12
2023-03-29T20:28:57.085Z,6.13
2023-03-29T20:31:24.948Z,6.10
2023-03-29T20:33:57.483Z,6.13
2023-03-29T20:36:26.775Z,6.15
2023-03-29T20:38:56.365Z,6.12
2023-03-29T20:41:24.386Z,6.11
2023-03-29T20:43:58.312Z,6.13
2023-03-29T20:46:35.870Z,6.12
2023-03-29T20:49:08.505Z,6.10
2023-03-29T20:51:40.452Z,6.06
2023-03-29T20:54:10.143Z,6.07
2023-03-29T20:56:40.087Z,6.07
2023-03-29T20:59:10.863Z,6.03
2023-03-29T21:01:42.491Z,6.04
2023-03-29T21:04:11.117Z,6.01
2023-03-29T21:06:42.162Z,5.97
2023-03-29T21:09:09.900Z,6.01
2023-03-29T21:11:37.779Z,6.02
2023-03-29T21:14:05.517Z,6.01
2023-03-29T21:16:33.500Z,6.02
2023-03-29T21:19:01.609Z,5.99
2023-03-29T21:21:30.298Z,6.01
2023-03-29T21:23:58.110Z,6.03
2023-03-29T21:26:26.189Z,6.01
2023-03-29T21:28:53.956Z,6.00
2023-03-29T21:31:21.743Z,5.99
2023-03-29T21:33:49.448Z,5.97
2023-03-29T21:36:17.204Z,5.98
2023-03-29T21:38:44.976Z,5.96
2023-03-29T21:41:13.834Z,5.98
2023-03-29T21:43:41.802Z,5.96
2023-03-29T21:46:09.961Z,5.95
2023-03-29T21:48:37.778Z,5.94
2023-03-29T21:51:06.452Z,5.93
2023-03-29T21:53:34.696Z,5.93
2023-03-29T21:56:02.947Z,5.96
2023-03-29T21:58:31.698Z,5.96
2023-03-29T22:00:59.885Z,5.98
2023-03-29T22:03:28.366Z,5.99
2023-03-29T22:05:57.828Z,5.99
2023-03-29T22:08:26.505Z,6.02
2023-03-29T22:10:55.677Z,6.02
2023-03-29T22:13:24.615Z,6.04
2023-03-29T22:15:59.414Z,6.05
2023-03-29T22:18:30.290Z,6.07
2023-03-29T22:20:58.248Z,6.02
2023-03-29T22:23:26.002Z,6.03
2023-03-29T22:25:53.755Z,6.02
2023-03-29T22:28:21.596Z,6.02
2023-03-29T22:30:49.277Z,6.03
2023-03-29T22:33:16.984Z,6.00
2023-03-29T22:35:47.493Z,5.96
2023-03-29T22:38:15.239Z,5.95
2023-03-29T22:40:42.975Z,5.95
2023-03-29T22:43:11.133Z,5.94
2023-03-29T22:45:39.036Z,5.94
2023-03-29T22:48:06.970Z,5.94
2023-03-29T22:50:34.808Z,5.91
2023-03-29T22:53:02.559Z,5.90
2023-03-29T22:55:30.652Z,5.89
2023-03-29T22:57:58.346Z,5.89
2023-03-29T23:00:26.629Z,5.87
2023-03-29T23:02:54.497Z,5.88
2023-03-29T23:05:22.222Z,5.87
2023-03-29T23:07:49.897Z,5.85
2023-03-29T23:10:17.720Z,5.86
2023-03-29T23:12:45.458Z,5.85
2023-03-29T23:15:13.229Z,5.84
2023-03-29T23:17:41.044Z,5.83
2023-03-29T23:20:11.336Z,5.83
2023-03-29T23:22:39.840Z,5.80
2023-03-29T23:25:08.051Z,5.80
2023-03-29T23:27:35.854Z,5.81
2023-03-29T23:30:04.054Z,5.78
2023-03-29T23:32:32.600Z,5.73
2023-03-29T23:35:00.434Z,5.77
2023-03-29T23:37:28.151Z,5.77
2023-03-29T23:39:56.104Z,5.78
2023-03-29T23:42:23.843Z,5.81
2023-03-29T23:44:51.574Z,5.79
2023-03-29T23:47:38.005Z,5.81
2023-03-29T23:50:09.608Z,5.80
2023-03-29T23:52:37.940Z,5.80
2023-03-29T23:55:06.059Z,5.82
2023-03-29T23:57:35.180Z,5.85
